Nearby METAR Reports

 

KEDC - Austin Exec, Texas, USA
Distance from station: SSE 10mi, 17km
Updated: Wed, 22-Nov-2017 8:35am CST
Clear
Clear
 Wind from N
Wind: N 20 mph , 31 km/h, Gust: 24 mph , 39 km/h
Temperature: 48°F , 9°C
Wind Chill: 41°F , 5°C
Dew Point: 32°F , 0°C
Humidity: 54%
Barometer: 30.35 inHg , 1027.8 hPa
Clouds: Clear
Visibility: 10 miles , 16 km
2017/11/22 14:35 KEDC 221435Z AUTO 36017G21KT 10SM CLR 09/00 A3035 RMK AO2
KGTU - Georgetown, Texas, USA
Distance from station: NNW 11mi, 17km
Updated: Wed, 22-Nov-2017 7:56am CST
Clear
Clear
 Wind from NNW
Wind: NNW 16 mph , 26 km/h, Gust: 24 mph , 39 km/h
Temperature: 46°F , 8°C
Wind Chill: 39°F , 4°C
Dew Point: 30°F , -1°C
Humidity: 53%
Barometer: 30.36 inHg , 1028.1 hPa
Clouds: Clear
Visibility: 10 miles , 16 km
2017/11/22 13:56 KGTU 221356Z 34014G21KT 10SM CLR 08/M01 A3036 RMK AO2 SLP281 T00831011
 
KATT - Austin/Mabry, Texas, USA
Distance from station: SSW 18mi, 30km
Updated: Wed, 22-Nov-2017 7:51am CST
Clear
Clear
 Wind from N
Wind: N 7 mph , 11 km/h, Gust: 17 mph , 28 km/h
Temperature: 50°F , 10°C
Wind Chill: 47°F , 8°C
Dew Point: 32°F , 0°C
Humidity: 50%
Barometer: 30.34 inHg , 1027.4 hPa
Clouds: Clear
Visibility: 10 miles , 16 km
2017/11/22 13:51 KATT 221351Z AUTO 35006G15KT 10SM CLR 10/00 A3034 RMK AO2 SLP271 T01000000 $
KRYW - Lago Vista, Texas, USA
Distance from station: W 22mi, 35km
Updated: Wed, 22-Nov-2017 8:35am CST
Clear
Clear
 Wind from N
Wind: N 14 mph , 22 km/h, Gust: 24 mph , 39 km/h
Temperature: 48°F , 9°C
Wind Chill: 42°F , 6°C
Dew Point: 30°F , -1°C
Humidity: 50%
Barometer: 30.35 inHg , 1027.8 hPa
Clouds: Clear
Visibility: 10 miles , 16 km
2017/11/22 14:35 KRYW 221435Z AUTO 36012G21KT 10SM CLR 09/M01 A3035 RMK AO2 T00861015
 
KAUS - Austin, Texas, USA
Distance from station: S 25mi, 41km
Updated: Wed, 22-Nov-2017 7:53am CST
Few Clouds
Few Clouds
 Wind from N
Wind: N 12 mph , 19 km/h
Temperature: 50°F , 10°C
Wind Chill: 45°F , 7°C
Dew Point: 34°F , 1°C
Humidity: 54%
Barometer: 30.33 inHg , 1027.1 hPa
Clouds: Few Clouds
Visibility: 10 miles , 16 km
Cloud details: Few Clouds 3300 ft
2017/11/22 13:53 KAUS 221353Z 35010KT 10SM FEW033 10/01 A3033 RMK AO2 SLP269 T01000011
KGRK - Gray/Ft Hood, Texas, USA
Distance from station: NNW 38mi, 62km
Updated: Wed, 22-Nov-2017 7:58am CST
Clear
Clear
 Wind from NW
Wind: NW 12 mph , 19 km/h
Temperature: 43°F , 6°C
Wind Chill: 37°F , 3°C
Dew Point: 28°F , -2°C
Humidity: 57%
Barometer: 30.35 inHg , 1027.8 hPa
Clouds: Clear
Visibility: 7 miles , 11 km
2017/11/22 13:58 KGRK 221358Z 31010KT 7SM CLR 06/M02 A3035 RMK AO2A SLP278 WND DATA ESTMD T00611025 $
 
KBMQ - Burnet, Texas, USA
Distance from station: WNW 39mi, 64km
Updated: Wed, 22-Nov-2017 7:53am CST
Clear
Clear
 Wind from N
Wind: N 10 mph , 17 km/h
Temperature: 45°F , 7°C
Wind Chill: 40°F , 4°C
Dew Point: 27°F , -3°C
Humidity: 49%
Barometer: 30.38 inHg , 1028.8 hPa
Clouds: Clear
Visibility: 10 miles , 16 km
2017/11/22 13:53 KBMQ 221353Z AUTO 35009KT 10SM CLR 07/M03 A3038 RMK AO2 SLP284 T00721028 $
KHLR - Ft Hood/Killeen, Texas, USA
Distance from station: N 41mi, 66km
Updated: Wed, 22-Nov-2017 7:58am CST
Clear
Clear
 Wind from NNW
Wind: NNW 10 mph , 17 km/h
Temperature: 43°F , 6°C
Wind Chill: 37°F , 3°C
Dew Point: 27°F , -3°C
Humidity: 53%
Barometer: 30.33 inHg , 1027.1 hPa
Clouds: Clear
Visibility: 9 miles , 14 km
2017/11/22 13:58 KHLR 221358Z AUTO 34009KT 9SM CLR 06/M03 A3033 RMK AO2 SLP270 T00641026 $
 
KTPL - Temple/Miller, Texas, USA
Distance from station: NNE 42mi, 68km
Updated: Wed, 22-Nov-2017 7:51am CST
Clear
Clear
 Wind from NNW
Wind: NNW 13 mph , 20 km/h
Temperature: 45°F , 7°C
Wind Chill: 39°F , 4°C
Dew Point: 27°F , -3°C
Humidity: 49%
Barometer: 30.35 inHg , 1027.8 hPa
Clouds: Clear
Visibility: 10 miles , 16 km
2017/11/22 13:51 KTPL 221351Z AUTO 34011KT 10SM CLR 07/M03 A3035 RMK AO2 SLP296 T00671033
KT35 - Cameron, Texas, USA
Distance from station: ENE 45mi, 72km
Updated: Wed, 22-Nov-2017 8:35am CST
Clear
Clear
 Wind from N
Wind: N 16 mph , 26 km/h, Gust: 20 mph , 31 km/h
Temperature: 50°F , 10°C
Wind Chill: 44°F , 7°C
Dew Point: 32°F , 0°C
Humidity: 50%
Barometer: 30.34 inHg , 1027.4 hPa
Clouds: Clear
Visibility: 10 miles , 16 km
2017/11/22 14:35 KT35 221435Z AUTO 36014G17KT 10SM CLR 10/00 A3034 RMK AO2 T00951003
 
KDZB - Horseshoe Bay, Texas, USA
Distance from station: W 45mi, 73km
Updated: Wed, 22-Nov-2017 8:35am CST
Clear
Clear
 Wind from N
Wind: N 10 mph , 17 km/h, Gust: 18 mph , 30 km/h
Temperature: 48°F , 9°C
Wind Chill: 44°F , 7°C
Dew Point: 32°F , 0°C
Humidity: 54%
Barometer: 30.40 inHg , 1029.5 hPa
Clouds: Clear
Visibility: 10 miles , 16 km
2017/11/22 14:35 KDZB 221435Z AUTO 36009G16KT 10SM CLR 09/00 A3040 RMK AO2 T00901001
KGYB - Giddings-Lee, Texas, USA
Distance from station: SE 45mi, 73km
Updated: Wed, 22-Nov-2017 8:35am CST
Clear
Clear
 Wind from N
Wind: N 9 mph , 15 km/h, Gust: 17 mph , 28 km/h
Temperature: 52°F , 11°C
Dew Point: 34°F , 1°C
Humidity: 50%
Barometer: 30.32 inHg , 1026.8 hPa
Clouds: Clear
Visibility: 10 miles , 16 km
2017/11/22 14:35 KGYB 221435Z AUTO 01008G15KT 10SM CLR 11/01 A3032 RMK AO2 T01050006
 
KHYI - San Marcos, Texas, USA
Distance from station: SSW 48mi, 78km
Updated: Wed, 22-Nov-2017 7:56am CST
Clear
Clear
 Wind from N
Wind: N 18 mph , 30 km/h, Gust: 24 mph , 39 km/h
Temperature: 52°F , 11°C
Dew Point: 34°F , 1°C
Humidity: 50%
Barometer: 30.32 inHg , 1026.8 hPa
Clouds: Clear
Visibility: 10 miles , 16 km
2017/11/22 13:56 KHYI 221356Z 01016G21KT 10SM CLR 11/01 A3032 RMK AO2 SLP262 T01060011 $